Time;durP1;ratioP1;P1;durP2;ratioP2;P2;SDS_P1;SDS_P2;PMS_P1;PMS_P2;Temp;Humidity;BMP_temperature;BMP_pressure;BME280_temperature;BME280_humidity;BME280_pressure;Samples;Min_cycle;Max_cycle;Signal;HPM_P1;HPM_P2
2023/08/26 02:29:15;;;;;;;1.10;0.70;;;;;;;24.07;60.48;99326.78;5270147;26;20062;-96
2023/08/26 02:31:41;;;;;;;0.30;0.17;;;;;;;24.12;60.47;99322.69;5264735;27;20551;-94
2023/08/26 02:34:06;;;;;;;0.37;0.37;;;;;;;24.13;60.48;99319.06;5265494;27;20094;-93
2023/08/26 02:36:32;;;;;;;0.40;0.40;;;;;;;24.13;60.47;99310.22;5284778;26;20096;-94
2023/08/26 02:38:57;;;;;;;0.45;0.15;;;;;;;24.12;60.47;99319.19;5275176;26;20110;-96
2023/08/26 02:41:23;;;;;;;1.00;0.68;;;;;;;24.13;60.47;99312.88;5278226;27;20112;-95
2023/08/26 02:43:48;;;;;;;0.75;0.75;;;;;;;24.23;60.48;99305.72;5265599;27;20302;-96
2023/08/26 02:46:14;;;;;;;1.05;0.95;;;;;;;23.94;60.47;99310.31;5264868;27;20053;-95
2023/08/26 02:48:39;;;;;;;0.40;0.40;;;;;;;23.84;60.46;99313.81;5264035;27;20117;-96
2023/08/26 03:02:06;;;;;;;0.57;0.57;;;;;;;23.91;60.47;99318.59;5323235;26;20059;-96
2023/08/26 03:17:35;;;;;;;0.90;0.43;;;;;;;23.97;60.46;99320.66;5323837;26;20070;-96
2023/08/26 03:22:37;;;;;;;0.77;0.70;;;;;;;23.61;60.46;99324.94;5264802;26;20065;-96
2023/08/26 03:25:04;;;;;;;1.55;1.20;;;;;;;23.62;60.45;99319.47;5243945;26;20119;-96
2023/08/26 03:27:30;;;;;;;0.35;0.30;;;;;;;23.72;60.45;99327.44;5263329;27;20030;-96
2023/08/26 03:29:56;;;;;;;0.28;0.28;;;;;;;23.74;60.46;99323.66;5242490;27;20061;-96
2023/08/26 03:32:23;;;;;;;0.25;0.25;;;;;;;23.67;60.46;99319.91;5250812;27;20094;-96
2023/08/26 03:34:49;;;;;;;1.58;0.40;;;;;;;23.53;60.45;99328.28;5361907;26;20021;-96
2023/08/26 03:37:14;;;;;;;0.50;0.50;;;;;;;23.48;60.45;99319.91;5281294;26;20081;-96
2023/08/26 03:39:41;;;;;;;0.10;0.10;;;;;;;23.41;60.44;99319.59;5244710;27;20075;-95
2023/08/26 03:42:09;;;;;;;0.10;0.10;;;;;;;23.47;60.44;99318.22;5262026;27;20798;-95
2023/08/26 03:44:45;;;;;;;1.27;0.50;;;;;;;23.28;60.43;99319.91;5247850;27;20069;-96
2023/08/26 03:47:33;;;;;;;1.10;1.02;;;;;;;23.43;60.43;99324.81;5314831;26;20998;-96
2023/08/26 03:50:40;;;;;;;0.25;0.13;;;;;;;23.35;60.43;99319.34;5319877;27;20040;-96
2023/08/26 03:53:29;;;;;;;0.25;0.25;;;;;;;23.34;60.43;99318.50;5328656;27;20047;-96
2023/08/26 03:57:14;;;;;;;0.13;0.13;;;;;;;23.35;60.43;99306.87;5298804;27;20021;-96
2023/08/26 03:59:57;;;;;;;0.10;0.10;;;;;;;23.48;60.44;99310.09;5184535;26;20102;-96
2023/08/26 04:02:22;;;;;;;0.40;0.30;;;;;;;23.40;60.44;99317.91;5199855;27;20156;-96
2023/08/26 04:04:48;;;;;;;0.77;0.40;;;;;;;23.45;60.45;99317.53;5291309;27;20897;-96
2023/08/26 04:07:14;;;;;;;1.05;0.95;;;;;;;23.62;60.45;99315.97;5268043;27;20065;-95
2023/08/26 04:10:11;;;;;;;1.30;0.43;;;;;;;23.63;60.45;99312.34;5284160;26;20135;-94
2023/08/26 04:12:37;;;;;;;0.65;0.65;;;;;;;23.50;60.44;99313.47;5306706;27;20083;-94
2023/08/26 04:15:04;;;;;;;2.33;0.88;;;;;;;23.61;60.45;99322.28;5266289;27;20108;-95
2023/08/26 04:17:30;;;;;;;0.32;0.28;;;;;;;23.47;60.44;99320.88;5268932;26;20068;-96
2023/08/26 04:19:55;;;;;;;0.95;0.95;;;;;;;23.71;60.45;99320.44;5276572;27;20071;-95
2023/08/26 04:22:21;;;;;;;0.57;0.57;;;;;;;23.66;60.46;99320.88;5270517;27;20056;-96
2023/08/26 04:24:48;;;;;;;0.00;0.00;;;;;;;23.81;60.46;99318.59;5287688;27;20061;-96
2023/08/26 04:27:13;;;;;;;1.05;0.62;;;;;;;23.61;60.45;99324.94;5275197;27;20025;-96
2023/08/26 04:29:41;;;;;;;0.50;0.50;;;;;;;23.88;60.47;99330.31;5292619;27;20084;-96
2023/08/26 04:35:06;;;;;;;0.13;0.13;;;;;;;23.72;60.45;99330.94;5332935;26;20036;-96
2023/08/26 04:37:35;;;;;;;2.40;1.10;;;;;;;23.84;60.46;99318.31;5390137;26;20052;-96
2023/08/26 04:40:03;;;;;;;1.33;1.17;;;;;;;23.76;60.46;99323.50;5384455;26;20049;-96
2023/08/26 04:43:11;;;;;;;1.50;0.35;;;;;;;23.70;60.46;99329.41;5319221;26;20084;-96
2023/08/26 04:45:57;;;;;;;6.00;0.40;;;;;;;23.74;60.46;99323.66;5277359;26;20148;-96
2023/08/26 04:51:06;;;;;;;1.27;0.98;;;;;;;24.00;60.47;99329.19;5392697;26;20072;-96
2023/08/26 04:53:32;;;;;;;0.90;0.52;;;;;;;23.98;60.47;99325.84;5368879;26;20099;-96
2023/08/26 04:56:47;;;;;;;1.00;0.50;;;;;;;24.10;60.48;99329.13;5369937;26;20059;-96
2023/08/26 04:59:57;;;;;;;3.28;0.88;;;;;;;24.13;60.49;99329.72;5340075;26;20121;-96
2023/08/26 05:06:47;;;;;;;0.13;0.13;;;;;;;24.48;60.49;99314.87;5250161;26;20041;-96
2023/08/26 07:34:33;;;;;;;0.50;0.50;;;;;;;30.99;60.82;99341.16;5328884;26;20433;-96
2023/08/26 07:39:33;;;;;;;1.62;1.33;;;;;;;31.12;60.83;99350.22;5334624;26;20091;-96
2023/08/26 07:42:00;;;;;;;4.68;1.62;;;;;;;31.22;60.83;99343.72;5301544;26;20060;-96
2023/08/26 07:44:26;;;;;;;1.83;1.05;;;;;;;31.31;60.84;99339.88;5320140;26;20053;-95
2023/08/26 07:46:52;;;;;;;0.85;0.57;;;;;;;31.15;60.83;99340.94;5302717;26;20022;-94
2023/08/26 07:49:17;;;;;;;2.42;2.22;;;;;;;31.30;60.84;99335.53;5320268;26;20033;-96
2023/08/26 07:51:43;;;;;;;0.75;0.75;;;;;;;31.40;60.84;99330.66;5379652;26;20078;-96
2023/08/26 07:54:08;;;;;;;0.62;0.62;;;;;;;31.59;60.86;99331.84;5285505;27;20092;-96
2023/08/26 07:56:34;;;;;;;2.00;1.65;;;;;;;31.86;60.87;99333.75;5303340;27;20337;-95
2023/08/26 07:59:00;;;;;;;2.40;2.20;;;;;;;31.89;60.88;99330.66;5283459;27;20131;-94
2023/08/26 08:01:25;;;;;;;1.52;0.95;;;;;;;31.94;60.87;99330.94;5282522;27;20057;-93
2023/08/26 08:03:50;;;;;;;0.52;0.50;;;;;;;32.05;60.88;99326.84;5377021;26;20065;-92
2023/08/26 08:06:16;;;;;;;0.62;0.62;;;;;;;32.10;60.88;99320.84;5282865;27;20090;-93
2023/08/26 08:08:41;;;;;;;1.37;1.17;;;;;;;32.21;60.89;99317.63;5283465;27;20061;-95
2023/08/26 08:11:07;;;;;;;0.93;0.93;;;;;;;32.40;60.90;99322.28;5285926;26;20072;-91
2023/08/26 08:13:32;;;;;;;0.50;0.50;;;;;;;32.59;60.90;99318.84;5281503;26;22639;-94
2023/08/26 08:15:58;;;;;;;1.92;1.40;;;;;;;32.65;60.91;99315.37;5377990;26;20101;-92
2023/08/26 08:18:23;;;;;;;1.35;1.25;;;;;;;32.82;60.91;99309.63;5282530;27;20360;-92
2023/08/26 08:20:48;;;;;;;1.08;0.93;;;;;;;32.97;60.93;99311.12;5300287;27;20381;-93
2023/08/26 08:23:14;;;;;;;0.70;0.70;;;;;;;33.18;60.94;99310.13;5281764;26;20365;-91
2023/08/26 08:25:39;;;;;;;1.15;1.10;;;;;;;33.16;60.93;99311.38;5299727;27;20343;-91
2023/08/26 08:28:05;;;;;;;1.50;1.40;;;;;;;33.21;60.94;99316.97;5375714;26;20060;-90
2023/08/26 08:30:30;;;;;;;0.60;0.55;;;;;;;33.44;60.95;99317.44;5299709;27;20341;-89
2023/08/26 08:32:56;;;;;;;1.05;0.93;;;;;;;33.56;60.95;99317.66;5284456;26;20087;-89
2023/08/26 08:35:21;;;;;;;2.45;1.70;;;;;;;33.51;60.96;99307.47;5299327;27;20049;-89
2023/08/26 08:37:47;;;;;;;1.50;1.40;;;;;;;33.76;60.96;99310.38;5281268;27;20119;-91
2023/08/26 08:40:13;;;;;;;10.18;2.47;;;;;;;33.92;60.97;99311.84;5280996;27;20072;-91
2023/08/26 08:42:40;;;;;;;3.75;1.27;;;;;;;33.86;60.97;99310.00;5263701;26;20111;-91
2023/08/26 08:45:05;;;;;;;2.20;1.55;;;;;;;33.98;60.98;99312.88;5263662;27;20049;-91
2023/08/26 08:47:31;;;;;;;1.83;1.35;;;;;;;34.02;60.98;99304.12;5281877;27;20063;-92
2023/08/26 08:49:57;;;;;;;4.65;1.75;;;;;;;34.15;60.98;99306.81;5395362;26;20367;-91
2023/08/26 08:52:22;;;;;;;0.68;0.68;;;;;;;34.40;61.00;99298.84;5395829;26;20061;-92
2023/08/26 08:54:48;;;;;;;0.73;0.73;;;;;;;34.50;61.00;99306.50;5381618;26;20049;-90
2023/08/26 08:57:14;;;;;;;0.60;0.60;;;;;;;34.72;61.02;99297.03;5361126;26;20057;-93
2023/08/26 08:59:39;;;;;;;1.05;0.62;;;;;;;34.87;61.03;99291.38;5382826;26;20060;-92
2023/08/26 09:02:05;;;;;;;0.73;0.73;;;;;;;34.94;61.03;99297.56;5375424;26;20021;-91
2023/08/26 09:04:31;;;;;;;1.77;1.55;;;;;;;34.90;61.03;99285.53;5413491;26;20025;-91
2023/08/26 09:06:57;;;;;;;1.83;1.67;;;;;;;35.06;61.03;99284.19;5389251;26;20643;-92
2023/08/26 09:09:22;;;;;;;1.25;1.20;;;;;;;35.07;61.03;99283.13;5398417;26;20131;-90
2023/08/26 09:11:48;;;;;;;2.45;2.25;;;;;;;35.30;61.04;99286.09;5394834;26;20061;-92
2023/08/26 09:14:14;;;;;;;0.95;0.88;;;;;;;35.39;61.05;99275.84;5394879;26;20070;-91
2023/08/26 09:16:40;;;;;;;2.92;1.73;;;;;;;35.47;61.05;99272.84;5357373;26;20070;-93
2023/08/26 09:19:14;;;;;;;1.80;1.65;;;;;;;35.60;61.06;99271.91;5376160;26;20082;-92
2023/08/26 09:21:46;;;;;;;0.77;0.77;;;;;;;35.81;61.07;99273.38;5376187;26;20057;-92
2023/08/26 09:24:13;;;;;;;1.77;1.67;;;;;;;35.93;61.07;99263.47;5376620;26;20369;-93
2023/08/26 09:26:39;;;;;;;0.40;0.40;;;;;;;35.91;61.08;99266.41;5376298;26;20061;-93
2023/08/26 09:29:20;;;;;;;1.40;1.08;;;;;;;35.83;61.08;99268.59;5379946;26;20083;-91
2023/08/26 09:31:49;;;;;;;1.37;1.23;;;;;;;36.08;61.09;99265.81;5394692;26;20053;-93
2023/08/26 09:34:29;;;;;;;2.15;1.95;;;;;;;36.15;61.08;99256.53;5376503;26;20413;-92
2023/08/26 09:36:55;;;;;;;1.35;0.85;;;;;;;36.35;61.10;99263.66;5376897;26;20079;-94
2023/08/26 09:39:21;;;;;;;1.62;1.37;;;;;;;36.32;61.10;99262.22;5376849;26;20061;-93
2023/08/26 09:41:55;;;;;;;1.85;1.62;;;;;;;36.58;61.11;99261.87;5378163;26;20790;-93
2023/08/26 09:44:21;;;;;;;1.95;1.85;;;;;;;36.68;61.11;99263.22;5377852;26;20057;-92
2023/08/26 09:46:47;;;;;;;1.20;1.10;;;;;;;36.87;61.13;99257.53;5377343;26;20057;-93
2023/08/26 09:49:16;;;;;;;0.98;0.88;;;;;;;37.01;61.13;99249.19;5398680;26;20071;-93
2023/08/26 09:51:52;;;;;;;1.33;1.08;;;;;;;37.01;61.13;99255.44;5396922;26;20107;-92
2023/08/26 09:54:18;;;;;;;0.90;0.90;;;;;;;36.98;61.13;99249.66;5396331;26;20757;-93
2023/08/26 09:56:44;;;;;;;2.17;1.60;;;;;;;37.21;61.14;99252.41;5377771;26;20116;-94
2023/08/26 09:59:10;;;;;;;1.40;1.17;;;;;;;37.27;61.14;99251.50;5396702;26;20072;-92
2023/08/26 10:01:35;;;;;;;1.95;1.77;;;;;;;37.37;61.15;99246.31;5377724;26;20061;-93
2023/08/26 10:04:09;;;;;;;2.30;1.70;;;;;;;37.54;61.16;99248.34;5377118;26;20048;-92
2023/08/26 10:06:47;;;;;;;1.17;1.10;;;;;;;37.62;61.16;99256.97;5377742;26;20096;-94
2023/08/26 10:09:51;;;;;;;12.25;2.80;;;;;;;37.72;61.17;99250.97;5377622;26;20073;-95
2023/08/26 10:12:21;;;;;;;1.35;1.20;;;;;;;37.84;61.17;99248.22;5394621;26;20028;-93
2023/08/26 10:14:49;;;;;;;3.60;1.75;;;;;;;37.81;61.17;99244.09;5394220;26;20063;-92
2023/08/26 10:17:14;;;;;;;3.42;1.00;;;;;;;37.96;61.18;99241.72;5375608;26;20029;-93
2023/08/26 10:19:40;;;;;;;1.45;1.35;;;;;;;38.04;61.18;99230.47;5384482;26;20063;-95
2023/08/26 10:22:05;;;;;;;0.93;0.90;;;;;;;38.12;61.18;99223.03;5377544;26;20096;-93
2023/08/26 10:24:35;;;;;;;0.93;0.80;;;;;;;38.32;61.19;99226.16;5396469;26;20099;-92
2023/08/26 10:27:01;;;;;;;1.40;1.27;;;;;;;38.35;61.20;99229.25;5395704;26;20068;-95
2023/08/26 10:29:27;;;;;;;2.47;2.00;;;;;;;38.47;61.19;99222.91;5377623;26;20081;-95
2023/08/26 10:31:55;;;;;;;2.60;1.85;;;;;;;38.56;61.20;99216.00;5380135;26;20028;-95
2023/08/26 10:34:21;;;;;;;2.25;2.05;;;;;;;38.46;61.20;99216.66;5398377;26;20056;-94
2023/08/26 10:36:47;;;;;;;3.33;2.67;;;;;;;38.61;61.21;99202.53;5398481;26;20097;-94
2023/08/26 10:39:15;;;;;;;1.85;1.50;;;;;;;38.77;61.21;99201.72;5400669;26;20056;-93
2023/08/26 10:41:42;;;;;;;0.68;0.68;;;;;;;38.95;61.22;99197.97;5382887;26;20049;-93
2023/08/26 10:44:08;;;;;;;1.87;1.77;;;;;;;38.96;61.22;99197.72;5389754;26;20079;-94
2023/08/26 10:46:57;;;;;;;0.73;0.70;;;;;;;39.10;61.23;99189.25;5380608;26;20057;-92
2023/08/26 10:49:22;;;;;;;8.10;2.58;;;;;;;39.02;61.23;99195.88;5378934;26;20064;-94
2023/08/26 10:51:48;;;;;;;0.70;0.60;;;;;;;39.14;61.22;99190.41;5377689;26;20068;-94
2023/08/26 10:54:13;;;;;;;1.55;1.45;;;;;;;39.00;61.23;99189.88;5378066;26;20337;-95
2023/08/26 10:56:41;;;;;;;1.20;1.20;;;;;;;39.22;61.23;99190.78;5377541;26;20056;-94
2023/08/26 10:59:07;;;;;;;1.50;1.40;;;;;;;39.39;61.24;99185.34;5379357;26;20061;-93
2023/08/26 11:01:34;;;;;;;1.33;1.23;;;;;;;39.23;61.23;99184.28;5379033;26;20421;-94
2023/08/26 11:04:00;;;;;;;1.15;1.05;;;;;;;39.47;61.24;99179.44;5379298;26;20044;-94
2023/08/26 11:07:04;;;;;;;0.50;0.45;;;;;;;39.36;61.24;99172.22;5364063;26;20035;-96
2023/08/26 11:10:06;;;;;;;;;;;;;;;;;;;;;
2023/08/26 11:13:00;;;;;;;1.73;1.37;;;;;;;39.67;61.26;99176.22;5397189;26;36689;-93
2023/08/26 11:15:38;;;;;;;2.00;1.73;;;;;;;39.75;61.27;99173.06;5367819;26;20149;-92
2023/08/26 11:18:05;;;;;;;1.75;1.65;;;;;;;39.81;61.27;99165.78;5370636;26;20056;-91
2023/08/26 11:20:33;;;;;;;2.65;2.30;;;;;;;39.76;61.26;99154.81;5370270;26;20056;-91
2023/08/26 11:22:59;;;;;;;2.30;1.65;;;;;;;39.83;61.27;99160.91;5370429;26;20699;-92
2023/08/26 11:25:26;;;;;;;2.28;1.62;;;;;;;39.80;61.26;99159.50;5354207;26;20040;-93
2023/08/26 11:28:16;;;;;;;;;;;;;;;;;;;;;
2023/08/26 11:30:53;;;;;;;;;;;;;;;;;;;;;
2023/08/26 11:33:44;;;;;;;1.45;1.33;;;;;;;39.90;61.27;99147.91;5369539;26;35394;-95
2023/08/26 11:36:09;;;;;;;4.18;1.83;;;;;;;40.04;61.27;99146.47;5372220;26;20070;-92
2023/08/26 11:39:00;;;;;;;21.30;1.48;;;;;;;40.07;61.28;99142.41;5370958;26;20321;-96
2023/08/26 11:44:33;;;;;;;;;;;;;;;;;;;;;
2023/08/26 11:54:39;;;;;;;;;;;;;;;;;;;;;
2023/08/26 11:57:23;;;;;;;1.63;1.53;;;;;;;40.07;61.28;99132.31;5336882;26;36390;-93
2023/08/26 12:00:15;;;;;;;1.55;1.45;;;;;;;40.02;61.28;99128.72;5304680;26;20041;-95
2023/08/26 12:03:05;;;;;;;1.17;1.00;;;;;;;39.99;61.28;99126.47;5358805;26;20063;-96
2023/08/26 12:09:06;;;;;;;1.90;1.73;;;;;;;39.94;61.27;99131.84;5321591;26;20060;-96
2023/08/26 12:11:46;;;;;;;1.30;1.23;;;;;;;39.99;61.28;99129.22;5254459;27;20064;-96
2023/08/26 12:14:23;;;;;;;3.37;1.30;;;;;;;40.07;61.29;99124.13;5220716;27;20072;-95
2023/08/26 12:16:50;;;;;;;0.93;0.93;;;;;;;40.08;61.28;99116.78;5239091;27;20061;-96
2023/08/26 12:20:06;;;;;;;1.52;1.02;;;;;;;40.01;61.27;99116.19;5219954;27;20745;-96
2023/08/26 12:22:52;;;;;;;0.70;0.70;;;;;;;40.03;61.27;99116.75;5248962;26;20042;-96
2023/08/26 12:32:19;;;;;;;1.25;1.05;;;;;;;40.04;61.28;99123.84;5149138;27;20066;-95
2023/08/26 12:35:13;;;;;;;0.80;0.77;;;;;;;39.90;61.27;99124.19;5161421;27;20125;-96
2023/08/26 12:45:52;;;;;;;1.45;1.35;;;;;;;39.37;61.25;99121.31;5143926;27;20492;-96
2023/08/26 12:49:34;;;;;;;1.35;1.25;;;;;;;39.41;61.25;99123.28;5088087;27;20067;-96
2023/08/26 13:12:08;;;;;;;;;;;;;;;;;;;;;
2023/08/26 13:14:34;;;;;;;1.65;1.55;;;;;;;40.12;61.28;99096.09;4517223;31;34852;-95
2023/08/26 13:17:00;;;;;;;1.23;1.12;;;;;;;40.24;61.29;99091.34;4503761;31;20444;-96
2023/08/26 13:20:17;;;;;;;1.42;1.05;;;;;;;40.28;61.29;99094.34;4517100;31;20088;-93
2023/08/26 13:22:43;;;;;;;1.42;1.33;;;;;;;40.24;61.29;99082.31;4531906;26;20114;-93
2023/08/26 13:28:17;;;;;;;0.57;0.57;;;;;;;40.18;61.29;99084.16;4453135;26;20097;-96
2023/08/26 13:31:02;;;;;;;0.93;0.90;;;;;;;40.31;61.30;99086.47;4431150;32;20132;-94
2023/08/26 13:33:28;;;;;;;2.42;1.00;;;;;;;40.29;61.28;99085.91;4414465;32;20058;-95
2023/08/26 13:35:53;;;;;;;1.05;0.95;;;;;;;40.37;61.29;99090.06;4412863;32;20129;-96
2023/08/26 13:38:26;;;;;;;1.58;1.00;;;;;;;40.51;61.30;99088.59;4410199;32;20097;-93
2023/08/26 13:40:52;;;;;;;1.17;1.15;;;;;;;40.22;61.29;99088.00;4410825;32;20140;-95
2023/08/26 13:43:48;;;;;;;2.05;1.37;;;;;;;40.06;61.28;99080.78;4422849;32;20090;-95
2023/08/26 13:46:34;;;;;;;;;;;;;;;;;;;;;
2023/08/26 13:49:45;;;;;;;1.10;0.93;;;;;;;40.03;61.28;99075.84;4425012;32;37380;-96
2023/08/26 13:52:39;;;;;;;1.58;1.45;;;;;;;39.90;61.28;99086.03;4442309;32;20085;-96
2023/08/26 13:55:11;;;;;;;2.15;1.83;;;;;;;39.82;61.28;99081.06;4439187;32;20703;-95
2023/08/26 13:57:36;;;;;;;;;;;;;;;39.80;61.26;99083.22;4414332;32;20113;-96
2023/08/26 14:00:02;;;;;;;2.22;1.90;;;;;;;39.74;61.27;99083.38;4426765;32;19988;-95
2023/08/26 14:02:28;;;;;;;1.45;1.33;;;;;;;39.62;61.26;99085.44;4414117;32;20457;-96
2023/08/26 14:04:56;;;;;;;1.85;1.05;;;;;;;39.36;61.25;99078.81;4413683;32;20089;-95
2023/08/26 14:07:24;;;;;;;0.73;0.73;;;;;;;39.31;61.24;99076.03;4412186;32;20690;-96
2023/08/26 14:09:57;;;;;;;0.88;0.88;;;;;;;39.16;61.25;99082.09;4404335;32;20070;-96
2023/08/26 14:12:38;;;;;;;0.70;0.70;;;;;;;38.95;61.23;99078.22;4406605;32;20065;-96
2023/08/26 14:15:12;;;;;;;1.50;1.40;;;;;;;39.01;61.23;99077.22;4430119;32;20137;-96
2023/08/26 14:17:41;;;;;;;1.40;1.30;;;;;;;39.09;61.24;99073.28;4427279;32;20129;-96
2023/08/26 14:20:08;;;;;;;2.33;1.67;;;;;;;39.01;61.23;99069.03;4403548;32;20114;-95
2023/08/26 14:22:36;;;;;;;1.17;1.10;;;;;;;39.12;61.24;99070.06;4415704;32;20082;-96
2023/08/26 14:25:01;;;;;;;1.17;1.08;;;;;;;39.18;61.24;99074.50;4401408;32;20116;-96
2023/08/26 14:27:27;;;;;;;2.05;1.10;;;;;;;38.99;61.24;99068.47;4401833;32;20101;-95
2023/08/26 14:29:52;;;;;;;0.98;0.82;;;;;;;38.99;61.24;99066.56;4401791;32;20152;-95
2023/08/26 14:32:24;;;;;;;1.33;0.95;;;;;;;38.90;61.22;99067.25;4402962;32;20082;-96
2023/08/26 14:34:52;;;;;;;0.55;0.55;;;;;;;38.69;61.22;99075.09;4402843;32;20089;-96
2023/08/26 14:37:25;;;;;;;1.98;1.67;;;;;;;38.74;61.22;99070.81;4402161;32;20093;-96
2023/08/26 14:39:54;;;;;;;0.80;0.60;;;;;;;38.71;61.22;99071.31;4406606;32;20110;-96
2023/08/26 14:42:19;;;;;;;1.20;0.85;;;;;;;38.68;61.22;99073.47;4403782;32;20066;-96
2023/08/26 14:44:45;;;;;;;1.00;0.93;;;;;;;38.73;61.22;99075.44;4403514;32;20112;-96
2023/08/26 14:47:32;;;;;;;0.70;0.70;;;;;;;38.76;61.22;99074.09;4403880;32;20132;-96
2023/08/26 14:49:58;;;;;;;4.05;2.00;;;;;;;38.67;61.22;99068.28;4415381;32;20133;-95
2023/08/26 14:52:27;;;;;;;1.55;1.17;;;;;;;38.64;61.21;99066.06;4416514;32;20135;-96
2023/08/26 14:54:53;;;;;;;1.98;1.55;;;;;;;38.66;61.23;99067.44;4403661;32;20143;-96
2023/08/26 14:57:20;;;;;;;1.58;1.00;;;;;;;38.75;61.23;99067.84;4404351;32;20106;-96
2023/08/26 14:59:59;;;;;;;1.20;1.10;;;;;;;38.69;61.22;99066.13;4401046;32;20124;-96
2023/08/26 15:02:30;;;;;;;1.23;1.15;;;;;;;38.83;61.23;99056.56;4404864;32;20163;-96
2023/08/26 15:05:04;;;;;;;1.33;0.73;;;;;;;38.86;61.23;99063.41;4417451;32;20066;-96
2023/08/26 15:07:50;;;;;;;8.43;1.52;;;;;;;38.83;61.23;99063.91;4429700;32;20474;-96
2023/08/26 15:10:16;;;;;;;1.73;1.08;;;;;;;38.73;61.22;99061.00;4415900;32;20102;-96
2023/08/26 15:13:10;;;;;;;0.60;0.60;;;;;;;38.71;61.22;99055.00;4404993;32;20073;-95
2023/08/26 15:15:48;;;;;;;3.20;1.73;;;;;;;38.70;61.22;99062.34;4425583;32;20090;-96
2023/08/26 15:18:35;;;;;;;1.02;0.88;;;;;;;38.50;61.20;99061.97;4402915;32;20095;-96
2023/08/26 15:21:05;;;;;;;3.28;1.50;;;;;;;38.38;61.20;99062.87;4403028;32;20121;-96
2023/08/26 15:23:38;;;;;;;1.17;0.90;;;;;;;38.27;61.20;99058.34;4405827;32;20093;-96
2023/08/26 15:26:11;;;;;;;1.92;1.77;;;;;;;38.39;61.21;99061.00;4418190;32;20056;-95
2023/08/26 15:28:37;;;;;;;1.98;1.80;;;;;;;38.45;61.21;99060.00;4417810;32;20175;-96
2023/08/26 15:31:12;;;;;;;5.72;1.73;;;;;;;38.51;61.21;99048.13;4407035;32;20074;-96
2023/08/26 15:33:38;;;;;;;0.93;0.93;;;;;;;38.44;61.21;99054.81;4405847;32;20080;-96
2023/08/26 15:36:11;;;;;;;0.98;0.98;;;;;;;38.42;61.22;99054.22;4405198;32;20070;-96
2023/08/26 15:38:44;;;;;;;1.08;0.95;;;;;;;38.45;61.21;99049.13;4429489;32;20109;-96
2023/08/26 15:41:14;;;;;;;2.05;1.17;;;;;;;38.49;61.20;99044.84;4405043;32;20096;-96
2023/08/26 15:43:49;;;;;;;0.85;0.82;;;;;;;38.45;61.21;99040.13;4417977;32;20094;-96
2023/08/26 15:46:28;;;;;;;0.85;0.85;;;;;;;38.49;61.20;99036.66;4403321;32;20085;-96
2023/08/26 15:49:03;;;;;;;1.65;1.23;;;;;;;38.46;61.21;99042.59;4417475;32;20092;-96
2023/08/26 15:55:17;;;;;;;;;;;;;;;;;;;;;
2023/08/26 15:57:52;;;;;;;1.27;1.17;;;;;;;38.38;61.20;99030.25;4443035;32;35535;-96
2023/08/26 16:00:18;;;;;;;1.95;1.30;;;;;;;38.31;61.20;99028.75;4412873;32;20458;-96
2023/08/26 16:02:46;;;;;;;1.33;0.90;;;;;;;38.21;61.20;99025.87;4412939;32;20181;-95
2023/08/26 16:05:13;;;;;;;0.62;0.62;;;;;;;37.92;61.19;99028.62;4422069;32;20159;-94
2023/08/26 16:07:44;;;;;;;2.10;1.67;;;;;;;37.91;61.18;99020.72;4413786;32;20086;-96
2023/08/26 16:10:10;;;;;;;1.02;0.75;;;;;;;37.81;61.17;99017.78;4413377;32;20184;-96
2023/08/26 16:12:35;;;;;;;0.95;0.70;;;;;;;37.87;61.18;99014.94;4416159;32;20109;-96
2023/08/26 16:15:01;;;;;;;2.30;0.75;;;;;;;37.63;61.17;99011.47;4414292;32;20130;-96
2023/08/26 16:17:27;;;;;;;1.08;0.62;;;;;;;37.52;61.17;99016.94;4412503;32;20755;-96
2023/08/26 16:19:59;;;;;;;1.58;1.23;;;;;;;37.40;61.15;99009.66;4415827;32;20102;-96
2023/08/26 16:22:27;;;;;;;1.35;0.95;;;;;;;37.48;61.16;99001.13;4415253;32;20154;-95
2023/08/26 16:25:09;;;;;;;2.70;0.80;;;;;;;37.31;61.16;99005.66;4416361;32;20102;-96
2023/08/26 16:28:07;;;;;;;2.15;1.20;;;;;;;37.26;61.15;99000.13;4449623;32;20085;-96
2023/08/26 16:33:23;;;;;;;0.93;0.62;;;;;;;37.16;61.15;99000.72;4475766;26;20144;-95
2023/08/26 16:36:19;;;;;;;1.17;1.08;;;;;;;37.07;61.15;98996.72;4464291;32;20106;-96
2023/08/26 16:38:48;;;;;;;1.27;1.17;;;;;;;36.97;61.14;98999.22;4464397;32;20141;-96
2023/08/26 16:41:18;;;;;;;0.77;0.65;;;;;;;36.87;61.14;98994.37;4440201;32;20105;-95
2023/08/26 16:43:44;;;;;;;1.02;1.02;;;;;;;36.92;61.13;98990.16;4439865;32;20100;-96
2023/08/26 16:46:24;;;;;;;3.03;2.40;;;;;;;36.78;61.12;98992.25;4575534;27;20097;-96
2023/08/26 16:49:03;;;;;;;1.23;1.15;;;;;;;36.84;61.13;98984.03;4464060;32;20093;-96
2023/08/26 16:51:46;;;;;;;2.55;0.98;;;;;;;36.70;61.12;98987.19;4453996;32;20073;-96
2023/08/26 16:54:14;;;;;;;2.33;0.98;;;;;;;36.65;61.12;98981.63;4451871;32;20109;-96
2023/08/26 16:57:42;;;;;;;2.33;1.95;;;;;;;36.45;61.11;98984.72;4438905;32;20093;-96
2023/08/26 17:00:24;;;;;;;3.10;2.50;;;;;;;36.41;61.12;98987.06;4463184;32;20099;-96
2023/08/26 17:02:58;;;;;;;3.03;1.55;;;;;;;36.07;61.10;98983.22;4450685;32;20734;-96
2023/08/26 17:05:27;;;;;;;2.22;1.70;;;;;;;35.98;61.10;98982.75;4450466;32;20082;-96
2023/08/26 17:08:13;;;;;;;;;;;;;;;;;;;;;
2023/08/26 17:10:45;;;;;;;0.60;0.52;;;;;;;35.79;61.09;98975.72;4433053;32;35551;-96
2023/08/26 17:13:22;;;;;;;0.73;0.60;;;;;;;35.71;61.08;98977.91;4418994;32;20114;-96
2023/08/26 17:15:56;;;;;;;5.47;2.20;;;;;;;35.61;61.07;98978.47;4425369;32;20105;-96
2023/08/26 17:18:25;;;;;;;1.12;1.02;;;;;;;35.52;61.07;98977.97;4427039;32;20071;-95
2023/08/26 17:21:13;;;;;;;0.77;0.65;;;;;;;35.44;61.07;98974.75;4430190;32;20077;-96
2023/08/26 17:23:39;;;;;;;0.50;0.50;;;;;;;35.47;61.07;98969.69;4432047;32;20082;-95
2023/08/26 17:26:13;;;;;;;2.25;0.80;;;;;;;35.29;61.06;98972.41;4419496;32;20129;-96
2023/08/26 17:28:44;;;;;;;0.60;0.60;;;;;;;35.26;61.06;98973.69;4427097;32;20093;-96
2023/08/26 17:34:12;;;;;;;0.80;0.80;;;;;;;34.86;61.04;98978.75;4437621;32;20106;-96
2023/08/26 17:36:50;;;;;;;0.73;0.73;;;;;;;34.79;61.04;98975.25;4406923;32;20118;-96
2023/08/26 17:39:20;;;;;;;1.12;0.98;;;;;;;34.68;61.04;98975.97;4409803;32;20065;-96
2023/08/26 17:41:54;;;;;;;2.47;1.30;;;;;;;34.52;61.02;98973.84;4421294;32;20110;-95
2023/08/26 17:44:28;;;;;;;1.98;1.37;;;;;;;34.38;61.02;98979.37;4435626;32;20082;-96
2023/08/26 17:47:05;;;;;;;1.08;0.98;;;;;;;34.31;61.02;98981.28;4421661;32;20105;-95
2023/08/26 17:49:42;;;;;;;1.45;1.35;;;;;;;34.23;61.01;98995.06;4446495;32;20065;-96
2023/08/26 17:52:23;;;;;;;2.50;1.58;;;;;;;34.11;61.00;98988.72;4456475;27;20073;-96
2023/08/26 18:00:16;;;;;;;0.95;0.93;;;;;;;33.99;61.00;99017.47;4507097;26;20446;-96
2023/08/26 18:02:50;;;;;;;1.95;1.58;;;;;;;33.75;60.98;99019.84;4454933;32;20066;-96
2023/08/26 18:05:23;;;;;;;1.20;1.10;;;;;;;33.62;60.98;99021.81;4466772;32;20081;-95
2023/08/26 18:08:09;;;;;;;3.62;1.37;;;;;;;33.68;60.98;99018.25;4453847;32;20074;-96
2023/08/26 18:10:37;;;;;;;1.40;1.30;;;;;;;33.58;60.98;99029.50;4465081;32;20129;-96
2023/08/26 18:13:09;;;;;;;5.28;1.87;;;;;;;33.48;60.98;99027.25;4427411;32;20100;-96
2023/08/26 18:15:38;;;;;;;1.45;0.55;;;;;;;33.43;60.97;99042.44;4423832;32;20108;-96
2023/08/26 18:18:07;;;;;;;;;;;;;;;33.38;60.96;99048.50;4422243;32;20105;-96
2023/08/26 18:20:38;;;;;;;1.50;1.40;;;;;;;33.39;60.96;99044.75;4430898;32;19960;-96
2023/08/26 18:23:14;;;;;;;1.52;1.42;;;;;;;33.16;60.96;99045.19;4407678;32;20074;-96
2023/08/26 18:25:42;;;;;;;1.20;1.10;;;;;;;32.94;60.95;99051.88;4421756;32;20114;-96
2023/08/26 18:28:08;;;;;;;1.70;0.32;;;;;;;32.67;60.92;99061.84;4434808;32;20093;-96
2023/08/26 18:30:48;;;;;;;5.35;1.35;;;;;;;32.66;60.93;99060.19;4424311;32;20084;-96
2023/08/26 18:33:26;;;;;;;3.20;0.80;;;;;;;32.44;60.93;99069.50;4435924;32;20094;-96
2023/08/26 18:36:37;;;;;;;1.50;0.93;;;;;;;32.35;60.92;99066.16;4427136;32;20130;-95
2023/08/26 19:11:59;;;;;;;5.47;2.85;;;;;;;31.36;60.86;99106.97;4402982;32;20144;-96
2023/08/26 19:18:18;;;;;;;1.20;0.73;;;;;;;31.27;60.86;99100.09;4372168;32;20078;-96
2023/08/26 19:20:44;;;;;;;1.65;0.62;;;;;;;30.74;60.83;99101.53;4381405;32;20139;-96
2023/08/26 19:23:09;;;;;;;0.80;0.80;;;;;;;30.74;60.83;99099.69;4354006;32;20201;-96
2023/08/26 19:25:35;;;;;;;0.65;0.65;;;;;;;30.69;60.83;99098.59;4362981;32;20149;-96
2023/08/26 19:28:01;;;;;;;1.83;1.33;;;;;;;30.53;60.83;99105.06;4357006;32;20157;-96